sensor_id;sensor_type;location;lat;lon;timestamp;temperature;humidity
53926;DHT22;39836;52.754;6.866;2024-03-02T00:01:23;7.20;77.10
53926;DHT22;39836;52.754;6.866;2024-03-02T00:03:49;7.20;77.10
53926;DHT22;39836;52.754;6.866;2024-03-02T00:06:18;7.30;77.10
53926;DHT22;39836;52.754;6.866;2024-03-02T00:08:44;7.30;76.90
53926;DHT22;39836;52.754;6.866;2024-03-02T00:11:10;7.30;77.20
53926;DHT22;39836;52.754;6.866;2024-03-02T00:13:39;7.30;76.80
53926;DHT22;39836;52.754;6.866;2024-03-02T00:16:05;7.20;77.20
53926;DHT22;39836;52.754;6.866;2024-03-02T00:18:35;7.20;77.10
53926;DHT22;39836;52.754;6.866;2024-03-02T00:21:01;7.20;77.10
53926;DHT22;39836;52.754;6.866;2024-03-02T00:23:30;7.20;77.10
53926;DHT22;39836;52.754;6.866;2024-03-02T00:25:59;7.30;77.00
53926;DHT22;39836;52.754;6.866;2024-03-02T00:28:33;7.30;77.00
53926;DHT22;39836;52.754;6.866;2024-03-02T00:31:03;7.20;77.00
53926;DHT22;39836;52.754;6.866;2024-03-02T00:33:37;7.30;77.00
53926;DHT22;39836;52.754;6.866;2024-03-02T00:36:06;7.30;77.00
53926;DHT22;39836;52.754;6.866;2024-03-02T00:38:33;7.30;77.10
53926;DHT22;39836;52.754;6.866;2024-03-02T00:41:03;7.30;77.40
53926;DHT22;39836;52.754;6.866;2024-03-02T00:44:02;7.30;77.20
53926;DHT22;39836;52.754;6.866;2024-03-02T00:46:33;7.30;77.20
53926;DHT22;39836;52.754;6.866;2024-03-02T00:49:00;7.30;77.50
53926;DHT22;39836;52.754;6.866;2024-03-02T00:51:29;7.30;77.30
53926;DHT22;39836;52.754;6.866;2024-03-02T00:54:03;7.30;77.10
53926;DHT22;39836;52.754;6.866;2024-03-02T00:56:30;7.30;77.30
53926;DHT22;39836;52.754;6.866;2024-03-02T00:58:56;7.30;77.30
53926;DHT22;39836;52.754;6.866;2024-03-02T01:01:22;7.30;77.40
53926;DHT22;39836;52.754;6.866;2024-03-02T01:03:48;7.40;77.30
53926;DHT22;39836;52.754;6.866;2024-03-02T01:06:15;7.40;77.20
53926;DHT22;39836;52.754;6.866;2024-03-02T01:08:41;7.40;77.30
53926;DHT22;39836;52.754;6.866;2024-03-02T01:11:07;7.40;77.10
53926;DHT22;39836;52.754;6.866;2024-03-02T01:13:33;7.50;77.00
53926;DHT22;39836;52.754;6.866;2024-03-02T01:15:59;7.50;77.10
53926;DHT22;39836;52.754;6.866;2024-03-02T01:18:25;7.50;77.20
53926;DHT22;39836;52.754;6.866;2024-03-02T01:20:51;7.50;77.20
53926;DHT22;39836;52.754;6.866;2024-03-02T01:23:20;7.60;76.90
53926;DHT22;39836;52.754;6.866;2024-03-02T01:25:47;7.60;77.10
53926;DHT22;39836;52.754;6.866;2024-03-02T01:28:14;7.60;77.10
53926;DHT22;39836;52.754;6.866;2024-03-02T01:30:40;7.60;76.80
53926;DHT22;39836;52.754;6.866;2024-03-02T01:33:06;7.60;77.00
53926;DHT22;39836;52.754;6.866;2024-03-02T01:35:32;7.70;77.00
53926;DHT22;39836;52.754;6.866;2024-03-02T01:37:58;7.60;76.90
53926;DHT22;39836;52.754;6.866;2024-03-02T01:40:24;7.70;76.90
53926;DHT22;39836;52.754;6.866;2024-03-02T01:42:55;7.70;76.90
53926;DHT22;39836;52.754;6.866;2024-03-02T01:45:23;7.70;76.90
53926;DHT22;39836;52.754;6.866;2024-03-02T01:47:49;7.70;76.90
53926;DHT22;39836;52.754;6.866;2024-03-02T01:50:15;7.70;77.00
53926;DHT22;39836;52.754;6.866;2024-03-02T01:52:41;7.70;76.90
53926;DHT22;39836;52.754;6.866;2024-03-02T01:55:07;7.70;77.00
53926;DHT22;39836;52.754;6.866;2024-03-02T01:57:34;7.80;77.00
53926;DHT22;39836;52.754;6.866;2024-03-02T02:00:00;7.80;77.10
53926;DHT22;39836;52.754;6.866;2024-03-02T02:02:26;7.80;76.90
53926;DHT22;39836;52.754;6.866;2024-03-02T02:04:52;7.70;77.10
53926;DHT22;39836;52.754;6.866;2024-03-02T02:07:17;7.70;77.10
53926;DHT22;39836;52.754;6.866;2024-03-02T02:09:43;7.80;77.00
53926;DHT22;39836;52.754;6.866;2024-03-02T02:12:09;7.80;77.00
53926;DHT22;39836;52.754;6.866;2024-03-02T02:14:36;7.70;77.10
53926;DHT22;39836;52.754;6.866;2024-03-02T02:17:02;7.70;77.30
53926;DHT22;39836;52.754;6.866;2024-03-02T02:19:28;7.80;77.00
53926;DHT22;39836;52.754;6.866;2024-03-02T02:21:54;7.80;77.10
53926;DHT22;39836;52.754;6.866;2024-03-02T02:24:20;7.90;77.20
53926;DHT22;39836;52.754;6.866;2024-03-02T02:26:45;7.90;77.00
53926;DHT22;39836;52.754;6.866;2024-03-02T02:29:11;7.90;76.90
53926;DHT22;39836;52.754;6.866;2024-03-02T02:31:41;7.90;77.00
53926;DHT22;39836;52.754;6.866;2024-03-02T02:34:06;7.90;77.10
53926;DHT22;39836;52.754;6.866;2024-03-02T02:36:33;7.80;77.10
53926;DHT22;39836;52.754;6.866;2024-03-02T02:39:03;7.80;76.90
53926;DHT22;39836;52.754;6.866;2024-03-02T02:41:30;7.80;77.10
53926;DHT22;39836;52.754;6.866;2024-03-02T02:43:56;7.70;77.10
53926;DHT22;39836;52.754;6.866;2024-03-02T02:46:22;7.80;77.20
53926;DHT22;39836;52.754;6.866;2024-03-02T02:48:47;7.80;77.10
53926;DHT22;39836;52.754;6.866;2024-03-02T02:51:13;7.90;76.90
53926;DHT22;39836;52.754;6.866;2024-03-02T02:53:39;8.00;77.10
53926;DHT22;39836;52.754;6.866;2024-03-02T02:56:07;7.90;77.00
53926;DHT22;39836;52.754;6.866;2024-03-02T02:58:33;7.90;77.20
53926;DHT22;39836;52.754;6.866;2024-03-02T03:00:58;7.90;77.10
53926;DHT22;39836;52.754;6.866;2024-03-02T03:03:24;8.00;77.10
53926;DHT22;39836;52.754;6.866;2024-03-02T03:05:50;7.90;77.10
53926;DHT22;39836;52.754;6.866;2024-03-02T03:08:15;8.00;77.10
53926;DHT22;39836;52.754;6.866;2024-03-02T03:10:42;8.00;77.20
53926;DHT22;39836;52.754;6.866;2024-03-02T03:13:08;8.00;77.10
53926;DHT22;39836;52.754;6.866;2024-03-02T03:15:37;8.00;77.10
53926;DHT22;39836;52.754;6.866;2024-03-02T03:18:06;8.00;77.10
53926;DHT22;39836;52.754;6.866;2024-03-02T03:20:33;8.00;76.90
53926;DHT22;39836;52.754;6.866;2024-03-02T03:22:59;8.10;77.00
53926;DHT22;39836;52.754;6.866;2024-03-02T03:25:25;8.10;77.00
53926;DHT22;39836;52.754;6.866;2024-03-02T03:27:51;8.10;77.10
53926;DHT22;39836;52.754;6.866;2024-03-02T03:30:19;8.10;76.80
53926;DHT22;39836;52.754;6.866;2024-03-02T03:32:45;8.10;77.10
53926;DHT22;39836;52.754;6.866;2024-03-02T03:35:11;8.00;77.30
53926;DHT22;39836;52.754;6.866;2024-03-02T03:37:38;7.90;77.40
53926;DHT22;39836;52.754;6.866;2024-03-02T03:40:04;7.80;77.50
53926;DHT22;39836;52.754;6.866;2024-03-02T03:42:37;7.70;77.50
53926;DHT22;39836;52.754;6.866;2024-03-02T03:45:03;7.70;77.50
53926;DHT22;39836;52.754;6.866;2024-03-02T03:47:31;7.60;77.50
53926;DHT22;39836;52.754;6.866;2024-03-02T03:49:57;7.50;77.50
53926;DHT22;39836;52.754;6.866;2024-03-02T03:52:23;7.50;77.60
53926;DHT22;39836;52.754;6.866;2024-03-02T03:54:49;7.40;77.70
53926;DHT22;39836;52.754;6.866;2024-03-02T03:57:14;7.30;77.70
53926;DHT22;39836;52.754;6.866;2024-03-02T03:59:40;7.30;77.80
53926;DHT22;39836;52.754;6.866;2024-03-02T04:02:06;7.20;77.90
53926;DHT22;39836;52.754;6.866;2024-03-02T04:04:32;7.30;78.00
53926;DHT22;39836;52.754;6.866;2024-03-02T04:06:59;7.20;78.10
53926;DHT22;39836;52.754;6.866;2024-03-02T04:09:24;7.30;78.10
53926;DHT22;39836;52.754;6.866;2024-03-02T04:11:51;7.30;78.10
53926;DHT22;39836;52.754;6.866;2024-03-02T04:14:17;7.30;78.00
53926;DHT22;39836;52.754;6.866;2024-03-02T04:16:42;7.30;78.10
53926;DHT22;39836;52.754;6.866;2024-03-02T04:19:08;7.30;78.10
53926;DHT22;39836;52.754;6.866;2024-03-02T04:21:34;7.30;78.20
53926;DHT22;39836;52.754;6.866;2024-03-02T04:23:59;7.30;78.10
53926;DHT22;39836;52.754;6.866;2024-03-02T04:26:26;7.40;78.10
53926;DHT22;39836;52.754;6.866;2024-03-02T04:28:52;7.30;78.20
53926;DHT22;39836;52.754;6.866;2024-03-02T04:31:18;7.30;78.20
53926;DHT22;39836;52.754;6.866;2024-03-02T04:33:44;7.30;77.80
53926;DHT22;39836;52.754;6.866;2024-03-02T04:36:10;7.30;77.80
53926;DHT22;39836;52.754;6.866;2024-03-02T04:38:37;7.30;77.90
53926;DHT22;39836;52.754;6.866;2024-03-02T04:41:04;7.30;77.90
53926;DHT22;39836;52.754;6.866;2024-03-02T04:43:32;7.30;78.00
53926;DHT22;39836;52.754;6.866;2024-03-02T04:46:01;7.30;77.80
53926;DHT22;39836;52.754;6.866;2024-03-02T04:48:30;7.30;77.90
53926;DHT22;39836;52.754;6.866;2024-03-02T04:50:56;7.30;77.80
53926;DHT22;39836;52.754;6.866;2024-03-02T04:53:22;7.30;78.00
53926;DHT22;39836;52.754;6.866;2024-03-02T04:55:48;7.30;77.90
53926;DHT22;39836;52.754;6.866;2024-03-02T04:58:19;7.30;77.90
53926;DHT22;39836;52.754;6.866;2024-03-02T05:00:45;7.20;77.90
53926;DHT22;39836;52.754;6.866;2024-03-02T05:03:12;7.20;78.00
53926;DHT22;39836;52.754;6.866;2024-03-02T05:05:39;7.20;78.00
53926;DHT22;39836;52.754;6.866;2024-03-02T05:08:05;7.20;77.80
53926;DHT22;39836;52.754;6.866;2024-03-02T05:10:30;7.20;77.80
53926;DHT22;39836;52.754;6.866;2024-03-02T05:12:56;7.10;77.90
53926;DHT22;39836;52.754;6.866;2024-03-02T05:15:25;7.10;78.00
53926;DHT22;39836;52.754;6.866;2024-03-02T05:17:51;7.00;77.90
53926;DHT22;39836;52.754;6.866;2024-03-02T05:20:17;7.00;78.00
53926;DHT22;39836;52.754;6.866;2024-03-02T05:22:46;7.00;78.00
53926;DHT22;39836;52.754;6.866;2024-03-02T05:25:12;7.00;78.00
53926;DHT22;39836;52.754;6.866;2024-03-02T05:27:38;6.90;78.00
53926;DHT22;39836;52.754;6.866;2024-03-02T05:30:04;6.90;78.00
53926;DHT22;39836;52.754;6.866;2024-03-02T05:32:32;6.80;78.10
53926;DHT22;39836;52.754;6.866;2024-03-02T05:34:59;6.80;78.20
53926;DHT22;39836;52.754;6.866;2024-03-02T05:40:08;6.70;78.20
53926;DHT22;39836;52.754;6.866;2024-03-02T05:42:34;6.60;78.20
53926;DHT22;39836;52.754;6.866;2024-03-02T05:45:00;6.70;78.30
53926;DHT22;39836;52.754;6.866;2024-03-02T05:47:26;6.70;78.30
53926;DHT22;39836;52.754;6.866;2024-03-02T05:49:53;6.60;78.30
53926;DHT22;39836;52.754;6.866;2024-03-02T05:52:28;6.70;78.40
53926;DHT22;39836;52.754;6.866;2024-03-02T05:55:00;6.60;78.40
53926;DHT22;39836;52.754;6.866;2024-03-02T05:57:38;6.70;78.40
53926;DHT22;39836;52.754;6.866;2024-03-02T06:00:15;6.70;78.40
53926;DHT22;39836;52.754;6.866;2024-03-02T06:02:47;6.60;78.40
53926;DHT22;39836;52.754;6.866;2024-03-02T06:05:16;6.70;78.40
53926;DHT22;39836;52.754;6.866;2024-03-02T06:07:44;6.60;78.30
53926;DHT22;39836;52.754;6.866;2024-03-02T06:10:10;6.60;78.30
53926;DHT22;39836;52.754;6.866;2024-03-02T06:12:36;6.50;78.40
53926;DHT22;39836;52.754;6.866;2024-03-02T06:15:02;6.50;78.40
53926;DHT22;39836;52.754;6.866;2024-03-02T06:17:29;6.40;78.50
53926;DHT22;39836;52.754;6.866;2024-03-02T06:19:56;6.40;78.50
53926;DHT22;39836;52.754;6.866;2024-03-02T06:22:21;6.30;78.70
53926;DHT22;39836;52.754;6.866;2024-03-02T06:24:51;6.30;78.70
53926;DHT22;39836;52.754;6.866;2024-03-02T06:27:17;6.40;78.70
53926;DHT22;39836;52.754;6.866;2024-03-02T06:29:43;6.40;78.70
53926;DHT22;39836;52.754;6.866;2024-03-02T06:32:08;6.40;78.70
53926;DHT22;39836;52.754;6.866;2024-03-02T06:34:34;6.40;78.80
53926;DHT22;39836;52.754;6.866;2024-03-02T06:37:03;6.50;78.80
53926;DHT22;39836;52.754;6.866;2024-03-02T06:39:32;6.50;78.80
53926;DHT22;39836;52.754;6.866;2024-03-02T06:42:05;6.60;78.80
53926;DHT22;39836;52.754;6.866;2024-03-02T06:44:48;6.60;78.70
53926;DHT22;39836;52.754;6.866;2024-03-02T06:49:50;6.60;78.80
53926;DHT22;39836;52.754;6.866;2024-03-02T06:52:19;6.70;78.80
53926;DHT22;39836;52.754;6.866;2024-03-02T06:57:24;6.60;78.80
53926;DHT22;39836;52.754;6.866;2024-03-02T06:59:55;6.70;78.80
53926;DHT22;39836;52.754;6.866;2024-03-02T07:02:26;6.70;78.70
53926;DHT22;39836;52.754;6.866;2024-03-02T07:05:00;6.70;78.80
53926;DHT22;39836;52.754;6.866;2024-03-02T07:07:34;6.80;78.60
53926;DHT22;39836;52.754;6.866;2024-03-02T07:13:26;6.70;78.60
53926;DHT22;39836;52.754;6.866;2024-03-02T07:19:01;6.60;78.80
53926;DHT22;39836;52.754;6.866;2024-03-02T07:21:30;6.60;78.90
53926;DHT22;39836;52.754;6.866;2024-03-02T07:27:04;6.60;78.80
53926;DHT22;39836;52.754;6.866;2024-03-02T07:29:33;6.60;78.80
53926;DHT22;39836;52.754;6.866;2024-03-02T07:31:59;6.70;78.80
53926;DHT22;39836;52.754;6.866;2024-03-02T07:34:25;6.70;78.80
53926;DHT22;39836;52.754;6.866;2024-03-02T07:36:51;6.80;78.70
53926;DHT22;39836;52.754;6.866;2024-03-02T07:39:17;6.90;78.80
53926;DHT22;39836;52.754;6.866;2024-03-02T07:41:43;6.90;78.70
53926;DHT22;39836;52.754;6.866;2024-03-02T07:44:09;6.90;79.00
53926;DHT22;39836;52.754;6.866;2024-03-02T07:46:35;7.00;78.70
53926;DHT22;39836;52.754;6.866;2024-03-02T07:49:08;7.00;78.50
53926;DHT22;39836;52.754;6.866;2024-03-02T07:51:34;7.00;78.60
53926;DHT22;39836;52.754;6.866;2024-03-02T07:54:06;7.00;78.50
53926;DHT22;39836;52.754;6.866;2024-03-02T07:59:17;7.10;78.50
53926;DHT22;39836;52.754;6.866;2024-03-02T08:01:45;7.10;78.30
53926;DHT22;39836;52.754;6.866;2024-03-02T08:04:14;7.10;78.30
53926;DHT22;39836;52.754;6.866;2024-03-02T08:06:40;7.10;78.50
53926;DHT22;39836;52.754;6.866;2024-03-02T08:09:09;7.10;78.40
53926;DHT22;39836;52.754;6.866;2024-03-02T08:11:38;7.20;78.40
53926;DHT22;39836;52.754;6.866;2024-03-02T08:14:15;7.20;78.70
53926;DHT22;39836;52.754;6.866;2024-03-02T08:16:42;7.20;78.70
53926;DHT22;39836;52.754;6.866;2024-03-02T08:19:14;7.20;78.60
53926;DHT22;39836;52.754;6.866;2024-03-02T08:21:41;7.30;78.60
53926;DHT22;39836;52.754;6.866;2024-03-02T08:24:10;7.30;78.70
53926;DHT22;39836;52.754;6.866;2024-03-02T08:26:36;7.30;78.80
53926;DHT22;39836;52.754;6.866;2024-03-02T08:29:05;7.40;78.70
53926;DHT22;39836;52.754;6.866;2024-03-02T08:31:31;7.40;78.60
53926;DHT22;39836;52.754;6.866;2024-03-02T08:34:15;7.40;79.00
53926;DHT22;39836;52.754;6.866;2024-03-02T08:37:04;7.50;78.70
53926;DHT22;39836;52.754;6.866;2024-03-02T08:39:39;7.70;78.80
53926;DHT22;39836;52.754;6.866;2024-03-02T08:42:12;7.80;78.50
53926;DHT22;39836;52.754;6.866;2024-03-02T08:45:17;7.90;77.90
53926;DHT22;39836;52.754;6.866;2024-03-02T08:47:49;8.20;78.70
53926;DHT22;39836;52.754;6.866;2024-03-02T08:50:18;8.50;78.40
53926;DHT22;39836;52.754;6.866;2024-03-02T08:52:44;8.60;77.80
53926;DHT22;39836;52.754;6.866;2024-03-02T08:55:10;8.70;77.50
53926;DHT22;39836;52.754;6.866;2024-03-02T08:57:37;8.70;77.90
53926;DHT22;39836;52.754;6.866;2024-03-02T09:00:03;8.90;77.40
53926;DHT22;39836;52.754;6.866;2024-03-02T09:02:31;8.90;77.10
53926;DHT22;39836;52.754;6.866;2024-03-02T09:04:57;8.90;77.60
53926;DHT22;39836;52.754;6.866;2024-03-02T09:07:23;8.80;77.10
53926;DHT22;39836;52.754;6.866;2024-03-02T09:09:58;8.80;77.70
53926;DHT22;39836;52.754;6.866;2024-03-02T09:16:06;8.80;77.20
53926;DHT22;39836;52.754;6.866;2024-03-02T09:19:14;8.90;77.80
53926;DHT22;39836;52.754;6.866;2024-03-02T09:21:42;9.20;77.50
53926;DHT22;39836;52.754;6.866;2024-03-02T09:24:11;9.10;77.70
53926;DHT22;39836;52.754;6.866;2024-03-02T09:26:46;9.20;77.30
53926;DHT22;39836;52.754;6.866;2024-03-02T09:29:12;9.50;77.90
53926;DHT22;39836;52.754;6.866;2024-03-02T09:31:47;9.60;77.40
53926;DHT22;39836;52.754;6.866;2024-03-02T09:34:13;9.80;77.80
53926;DHT22;39836;52.754;6.866;2024-03-02T09:36:45;9.70;77.00
53926;DHT22;39836;52.754;6.866;2024-03-02T09:39:42;9.60;77.20
53926;DHT22;39836;52.754;6.866;2024-03-02T09:42:12;9.50;76.80
53926;DHT22;39836;52.754;6.866;2024-03-02T09:45:10;9.60;77.40
53926;DHT22;39836;52.754;6.866;2024-03-02T09:47:47;9.50;76.90
53926;DHT22;39836;52.754;6.866;2024-03-02T09:50:31;9.50;76.80
53926;DHT22;39836;52.754;6.866;2024-03-02T09:53:07;9.60;77.00
53926;DHT22;39836;52.754;6.866;2024-03-02T09:55:34;9.90;77.80
53926;DHT22;39836;52.754;6.866;2024-03-02T09:58:03;10.10;77.10
53926;DHT22;39836;52.754;6.866;2024-03-02T10:00:32;10.20;76.60
53926;DHT22;39836;52.754;6.866;2024-03-02T10:02:59;10.30;76.40
53926;DHT22;39836;52.754;6.866;2024-03-02T10:05:26;10.30;76.50
53926;DHT22;39836;52.754;6.866;2024-03-02T10:08:03;10.40;76.60
53926;DHT22;39836;52.754;6.866;2024-03-02T10:10:37;10.60;76.70
53926;DHT22;39836;52.754;6.866;2024-03-02T10:13:06;10.50;76.40
53926;DHT22;39836;52.754;6.866;2024-03-02T10:15:33;10.40;76.20
53926;DHT22;39836;52.754;6.866;2024-03-02T10:17:59;10.40;76.90
53926;DHT22;39836;52.754;6.866;2024-03-02T10:20:25;10.30;76.10
53926;DHT22;39836;52.754;6.866;2024-03-02T10:22:54;10.20;76.50
53926;DHT22;39836;52.754;6.866;2024-03-02T10:25:33;10.30;77.10
53926;DHT22;39836;52.754;6.866;2024-03-02T10:27:59;10.30;76.60
53926;DHT22;39836;52.754;6.866;2024-03-02T10:30:28;10.40;76.00
53926;DHT22;39836;52.754;6.866;2024-03-02T10:33:01;10.50;76.70
53926;DHT22;39836;52.754;6.866;2024-03-02T10:36:04;10.60;76.50
53926;DHT22;39836;52.754;6.866;2024-03-02T10:42:12;11.00;76.10
53926;DHT22;39836;52.754;6.866;2024-03-02T10:44:47;11.20;75.20
53926;DHT22;39836;52.754;6.866;2024-03-02T12:42:43;13.20;71.50
53926;DHT22;39836;52.754;6.866;2024-03-02T12:50:04;13.60;72.50
53926;DHT22;39836;52.754;6.866;2024-03-02T12:57:17;13.90;70.50
53926;DHT22;39836;52.754;6.866;2024-03-02T13:00:27;14.00;69.50
53926;DHT22;39836;52.754;6.866;2024-03-02T13:03:25;14.10;69.50
53926;DHT22;39836;52.754;6.866;2024-03-02T13:06:33;14.10;68.90
53926;DHT22;39836;52.754;6.866;2024-03-02T13:08:59;14.20;68.80
53926;DHT22;39836;52.754;6.866;2024-03-02T13:11:25;14.50;69.50
53926;DHT22;39836;52.754;6.866;2024-03-02T13:13:51;14.60;69.50
53926;DHT22;39836;52.754;6.866;2024-03-02T13:16:18;14.70;69.90
53926;DHT22;39836;52.754;6.866;2024-03-02T13:18:45;14.70;69.10
53926;DHT22;39836;52.754;6.866;2024-03-02T13:21:11;14.90;69.60
53926;DHT22;39836;52.754;6.866;2024-03-02T13:23:36;15.00;69.40
53926;DHT22;39836;52.754;6.866;2024-03-02T13:26:02;15.10;69.40
53926;DHT22;39836;52.754;6.866;2024-03-02T13:28:28;15.30;69.70
53926;DHT22;39836;52.754;6.866;2024-03-02T13:30:54;15.10;67.60
53926;DHT22;39836;52.754;6.866;2024-03-02T13:33:19;15.10;67.50
53926;DHT22;39836;52.754;6.866;2024-03-02T13:35:51;15.10;68.00
53926;DHT22;39836;52.754;6.866;2024-03-02T13:38:20;15.40;68.80
53926;DHT22;39836;52.754;6.866;2024-03-02T13:40:48;15.40;68.80
53926;DHT22;39836;52.754;6.866;2024-03-02T13:43:16;15.50;68.10
53926;DHT22;39836;52.754;6.866;2024-03-02T13:45:42;15.50;67.40
53926;DHT22;39836;52.754;6.866;2024-03-02T13:48:08;15.50;69.30
53926;DHT22;39836;52.754;6.866;2024-03-02T13:50:35;15.40;68.80
53926;DHT22;39836;52.754;6.866;2024-03-02T13:53:00;15.00;68.30
53926;DHT22;39836;52.754;6.866;2024-03-02T13:55:26;14.50;68.10
53926;DHT22;39836;52.754;6.866;2024-03-02T13:57:52;14.50;68.90
53926;DHT22;39836;52.754;6.866;2024-03-02T14:00:18;14.60;68.00
53926;DHT22;39836;52.754;6.866;2024-03-02T14:02:45;14.60;68.20
53926;DHT22;39836;52.754;6.866;2024-03-02T14:05:11;14.40;68.00
53926;DHT22;39836;52.754;6.866;2024-03-02T14:07:46;14.20;69.00
53926;DHT22;39836;52.754;6.866;2024-03-02T14:10:12;14.00;68.40
53926;DHT22;39836;52.754;6.866;2024-03-02T14:12:38;13.80;69.40
53926;DHT22;39836;52.754;6.866;2024-03-02T14:15:04;13.70;69.60
53926;DHT22;39836;52.754;6.866;2024-03-02T14:17:29;13.70;69.60
53926;DHT22;39836;52.754;6.866;2024-03-02T14:19:57;13.70;69.30
53926;DHT22;39836;52.754;6.866;2024-03-02T14:22:24;13.50;70.00
53926;DHT22;39836;52.754;6.866;2024-03-02T14:24:50;13.40;69.20
53926;DHT22;39836;52.754;6.866;2024-03-02T14:27:16;13.40;69.40
53926;DHT22;39836;52.754;6.866;2024-03-02T14:29:45;13.40;69.60
53926;DHT22;39836;52.754;6.866;2024-03-02T14:32:10;13.30;70.20
53926;DHT22;39836;52.754;6.866;2024-03-02T14:34:36;13.30;70.30
53926;DHT22;39836;52.754;6.866;2024-03-02T14:37:02;13.40;70.40
53926;DHT22;39836;52.754;6.866;2024-03-02T14:39:28;13.50;70.40
53926;DHT22;39836;52.754;6.866;2024-03-02T14:41:54;13.50;69.90
53926;DHT22;39836;52.754;6.866;2024-03-02T14:44:21;13.60;70.10
53926;DHT22;39836;52.754;6.866;2024-03-02T14:46:48;13.90;70.20
53926;DHT22;39836;52.754;6.866;2024-03-02T14:49:14;14.00;69.40
53926;DHT22;39836;52.754;6.866;2024-03-02T14:51:40;14.10;69.60
53926;DHT22;39836;52.754;6.866;2024-03-02T14:54:06;14.10;69.70
53926;DHT22;39836;52.754;6.866;2024-03-02T14:56:31;13.90;69.70
53926;DHT22;39836;52.754;6.866;2024-03-02T14:58:57;13.70;69.60
53926;DHT22;39836;52.754;6.866;2024-03-02T15:01:23;13.60;70.00
53926;DHT22;39836;52.754;6.866;2024-03-02T15:03:50;13.50;69.70
53926;DHT22;39836;52.754;6.866;2024-03-02T15:06:16;13.50;70.30
53926;DHT22;39836;52.754;6.866;2024-03-02T15:08:42;13.50;70.00
53926;DHT22;39836;52.754;6.866;2024-03-02T15:11:08;13.50;70.20
53926;DHT22;39836;52.754;6.866;2024-03-02T15:13:34;13.50;70.50
53926;DHT22;39836;52.754;6.866;2024-03-02T15:16:00;13.50;70.00
53926;DHT22;39836;52.754;6.866;2024-03-02T15:18:26;13.60;71.00
53926;DHT22;39836;52.754;6.866;2024-03-02T15:20:53;13.60;70.60
53926;DHT22;39836;52.754;6.866;2024-03-02T15:23:18;13.60;70.80
53926;DHT22;39836;52.754;6.866;2024-03-02T15:25:44;13.60;70.20
53926;DHT22;39836;52.754;6.866;2024-03-02T15:28:10;13.70;70.20
53926;DHT22;39836;52.754;6.866;2024-03-02T15:30:35;13.70;71.10
53926;DHT22;39836;52.754;6.866;2024-03-02T15:33:02;13.70;70.20
53926;DHT22;39836;52.754;6.866;2024-03-02T15:35:28;13.70;69.80
53926;DHT22;39836;52.754;6.866;2024-03-02T15:37:53;13.70;70.60
53926;DHT22;39836;52.754;6.866;2024-03-02T15:40:19;13.70;70.10
53926;DHT22;39836;52.754;6.866;2024-03-02T15:42:45;13.60;70.20
53926;DHT22;39836;52.754;6.866;2024-03-02T15:45:10;13.60;70.30
53926;DHT22;39836;52.754;6.866;2024-03-02T15:47:36;13.50;70.40
53926;DHT22;39836;52.754;6.866;2024-03-02T15:50:02;13.50;70.70
53926;DHT22;39836;52.754;6.866;2024-03-02T15:52:29;13.40;70.30
53926;DHT22;39836;52.754;6.866;2024-03-02T15:54:55;13.50;70.60
53926;DHT22;39836;52.754;6.866;2024-03-02T15:57:21;13.40;70.90
53926;DHT22;39836;52.754;6.866;2024-03-02T15:59:48;13.20;71.20
53926;DHT22;39836;52.754;6.866;2024-03-02T16:02:15;13.20;70.70
53926;DHT22;39836;52.754;6.866;2024-03-02T16:04:41;13.20;70.80
53926;DHT22;39836;52.754;6.866;2024-03-02T16:07:07;13.10;71.40
53926;DHT22;39836;52.754;6.866;2024-03-02T16:09:33;12.90;71.20
53926;DHT22;39836;52.754;6.866;2024-03-02T16:11:58;12.80;71.50
53926;DHT22;39836;52.754;6.866;2024-03-02T16:14:24;12.80;71.40
53926;DHT22;39836;52.754;6.866;2024-03-02T16:16:50;12.80;71.40
53926;DHT22;39836;52.754;6.866;2024-03-02T16:19:16;12.70;72.00
53926;DHT22;39836;52.754;6.866;2024-03-02T16:21:42;12.60;72.00
53926;DHT22;39836;52.754;6.866;2024-03-02T16:24:08;12.70;72.20
53926;DHT22;39836;52.754;6.866;2024-03-02T16:26:34;12.70;71.90
53926;DHT22;39836;52.754;6.866;2024-03-02T16:28:59;12.60;72.20
53926;DHT22;39836;52.754;6.866;2024-03-02T16:31:25;12.70;71.80
53926;DHT22;39836;52.754;6.866;2024-03-02T16:33:51;12.70;71.70
53926;DHT22;39836;52.754;6.866;2024-03-02T16:36:17;12.70;71.80
53926;DHT22;39836;52.754;6.866;2024-03-02T16:38:43;12.70;71.70
53926;DHT22;39836;52.754;6.866;2024-03-02T16:41:09;12.60;72.10
53926;DHT22;39836;52.754;6.866;2024-03-02T16:43:35;12.50;71.90
53926;DHT22;39836;52.754;6.866;2024-03-02T16:46:01;12.60;72.30
53926;DHT22;39836;52.754;6.866;2024-03-02T16:48:26;12.50;72.10
53926;DHT22;39836;52.754;6.866;2024-03-02T16:50:52;12.40;72.40
53926;DHT22;39836;52.754;6.866;2024-03-02T16:53:18;12.40;72.30
53926;DHT22;39836;52.754;6.866;2024-03-02T16:55:43;12.30;72.40
53926;DHT22;39836;52.754;6.866;2024-03-02T16:58:09;12.20;72.60
53926;DHT22;39836;52.754;6.866;2024-03-02T17:00:35;12.20;72.60
53926;DHT22;39836;52.754;6.866;2024-03-02T17:03:01;12.20;72.60
53926;DHT22;39836;52.754;6.866;2024-03-02T17:05:27;12.20;72.50
53926;DHT22;39836;52.754;6.866;2024-03-02T17:07:53;12.20;72.50
53926;DHT22;39836;52.754;6.866;2024-03-02T17:10:18;12.20;72.60
53926;DHT22;39836;52.754;6.866;2024-03-02T17:12:44;12.20;72.60
53926;DHT22;39836;52.754;6.866;2024-03-02T17:15:10;12.20;72.30
53926;DHT22;39836;52.754;6.866;2024-03-02T17:17:36;12.20;72.70
53926;DHT22;39836;52.754;6.866;2024-03-02T17:20:02;12.20;72.90
53926;DHT22;39836;52.754;6.866;2024-03-02T17:22:30;12.20;72.90
53926;DHT22;39836;52.754;6.866;2024-03-02T17:24:57;12.10;72.60
53926;DHT22;39836;52.754;6.866;2024-03-02T17:27:22;12.10;72.90
53926;DHT22;39836;52.754;6.866;2024-03-02T17:29:49;12.20;72.90
53926;DHT22;39836;52.754;6.866;2024-03-02T17:32:14;12.10;73.10
53926;DHT22;39836;52.754;6.866;2024-03-02T17:34:40;12.00;73.20
53926;DHT22;39836;52.754;6.866;2024-03-02T17:37:05;12.00;73.30
53926;DHT22;39836;52.754;6.866;2024-03-02T17:39:31;11.90;73.30
53926;DHT22;39836;52.754;6.866;2024-03-02T17:41:57;11.80;73.60
53926;DHT22;39836;52.754;6.866;2024-03-02T17:44:22;11.60;73.80
53926;DHT22;39836;52.754;6.866;2024-03-02T17:46:48;11.50;73.90
53926;DHT22;39836;52.754;6.866;2024-03-02T17:49:14;11.50;74.00
53926;DHT22;39836;52.754;6.866;2024-03-02T17:51:39;11.50;74.10
53926;DHT22;39836;52.754;6.866;2024-03-02T17:54:05;11.50;74.00
53926;DHT22;39836;52.754;6.866;2024-03-02T17:56:31;11.50;74.10
53926;DHT22;39836;52.754;6.866;2024-03-02T17:58:57;11.50;74.30
53926;DHT22;39836;52.754;6.866;2024-03-02T18:01:23;11.50;74.20
53926;DHT22;39836;52.754;6.866;2024-03-02T18:03:49;11.40;74.60
53926;DHT22;39836;52.754;6.866;2024-03-02T18:06:15;11.40;74.50
53926;DHT22;39836;52.754;6.866;2024-03-02T18:08:40;11.40;74.60
53926;DHT22;39836;52.754;6.866;2024-03-02T18:11:06;11.40;74.60
53926;DHT22;39836;52.754;6.866;2024-03-02T18:13:32;11.40;74.40
53926;DHT22;39836;52.754;6.866;2024-03-02T18:15:59;11.40;74.60
53926;DHT22;39836;52.754;6.866;2024-03-02T18:18:25;11.40;74.50